sensor_id;sensor_type;location;lat;lon;timestamp;pressure;altitude;pressure_sealevel;temperature;humidity
46846;BME280;33947;46.804;134.252;2023-08-24T00:01:16;100622.31;;;24.42;93.30
46846;BME280;33947;46.804;134.252;2023-08-24T00:04:23;100611.72;;;24.93;89.32
46846;BME280;33947;46.804;134.252;2023-08-24T00:07:28;100617.91;;;25.26;87.28
46846;BME280;33947;46.804;134.252;2023-08-24T00:10:31;100609.81;;;25.46;85.06
46846;BME280;33947;46.804;134.252;2023-08-24T00:13:36;100604.63;;;25.33;84.47
46846;BME280;33947;46.804;134.252;2023-08-24T00:16:43;100610.19;;;25.52;84.10
46846;BME280;33947;46.804;134.252;2023-08-24T00:19:47;100625.50;;;25.53;82.82
46846;BME280;33947;46.804;134.252;2023-08-24T00:23:00;100613.97;;;25.09;84.84
46846;BME280;33947;46.804;134.252;2023-08-24T00:26:08;100591.28;;;25.29;85.06
46846;BME280;33947;46.804;134.252;2023-08-24T00:29:13;100626.41;;;25.42;82.81
46846;BME280;33947;46.804;134.252;2023-08-24T00:32:26;100626.59;;;25.82;83.00
46846;BME280;33947;46.804;134.252;2023-08-24T00:35:33;100623.91;;;26.11;81.07
46846;BME280;33947;46.804;134.252;2023-08-24T00:38:39;100622.66;;;26.06;80.02
46846;BME280;33947;46.804;134.252;2023-08-24T00:41:48;100614.88;;;25.91;78.91
46846;BME280;33947;46.804;134.252;2023-08-24T00:44:59;100619.47;;;26.10;79.37
46846;BME280;33947;46.804;134.252;2023-08-24T00:48:08;100620.00;;;26.55;76.25
46846;BME280;33947;46.804;134.252;2023-08-24T00:51:14;100611.66;;;26.76;76.03
46846;BME280;33947;46.804;134.252;2023-08-24T00:54:19;100615.72;;;27.20;74.61
46846;BME280;33947;46.804;134.252;2023-08-24T00:57:23;100611.47;;;27.45;73.07
46846;BME280;33947;46.804;134.252;2023-08-24T01:00:27;100616.63;;;27.86;71.37
46846;BME280;33947;46.804;134.252;2023-08-24T01:03:31;100603.31;;;28.55;70.83
46846;BME280;33947;46.804;134.252;2023-08-24T01:06:39;100605.72;;;28.58;69.69
46846;BME280;33947;46.804;134.252;2023-08-24T01:09:47;100620.47;;;29.71;66.63
46846;BME280;33947;46.804;134.252;2023-08-24T01:13:07;100619.97;;;31.10;64.90
46846;BME280;33947;46.804;134.252;2023-08-24T01:16:21;100622.09;;;31.56;61.92
46846;BME280;33947;46.804;134.252;2023-08-24T01:19:37;100612.72;;;31.74;60.60
46846;BME280;33947;46.804;134.252;2023-08-24T01:22:55;100610.50;;;32.41;58.01
46846;BME280;33947;46.804;134.252;2023-08-24T01:26:07;100588.75;;;33.08;55.13
46846;BME280;33947;46.804;134.252;2023-08-24T01:29:12;100606.59;;;32.03;57.42
46846;BME280;33947;46.804;134.252;2023-08-24T01:32:19;100605.09;;;32.47;56.23
46846;BME280;33947;46.804;134.252;2023-08-24T01:35:26;100596.81;;;31.21;57.98
46846;BME280;33947;46.804;134.252;2023-08-24T01:38:43;100551.81;;;31.39;56.85
46846;BME280;33947;46.804;134.252;2023-08-24T01:43:01;100519.94;;;32.16;51.48
46846;BME280;33947;46.804;134.252;2023-08-24T01:51:26;100507.75;;;30.59;54.21
46846;BME280;33947;46.804;134.252;2023-08-24T01:55:11;100567.31;;;32.65;52.22
46846;BME280;33947;46.804;134.252;2023-08-24T01:58:54;100530.72;;;33.39;48.59
46846;BME280;33947;46.804;134.252;2023-08-24T02:03:02;100483.78;;;31.57;52.33
46846;BME280;33947;46.804;134.252;2023-08-24T02:11:19;100555.19;;;31.01;56.98
46846;BME280;33947;46.804;134.252;2023-08-24T02:16:05;100531.78;;;30.49;51.77
46846;BME280;33947;46.804;134.252;2023-08-24T02:20:13;100518.88;;;30.90;53.50
46846;BME280;33947;46.804;134.252;2023-08-24T02:24:10;100478.84;;;30.65;52.08
46846;BME280;33947;46.804;134.252;2023-08-24T02:28:04;100489.81;;;29.39;55.88
46846;BME280;33947;46.804;134.252;2023-08-24T02:32:13;100500.00;;;29.55;54.27
46846;BME280;33947;46.804;134.252;2023-08-24T02:36:30;100576.28;;;30.17;50.68
46846;BME280;33947;46.804;134.252;2023-08-24T02:40:38;100511.91;;;29.02;55.42
46846;BME280;33947;46.804;134.252;2023-08-24T02:44:33;100485.00;;;29.92;54.51
46846;BME280;33947;46.804;134.252;2023-08-24T02:48:37;100508.78;;;29.32;56.52
46846;BME280;33947;46.804;134.252;2023-08-24T02:52:42;100504.59;;;28.32;58.74
46846;BME280;33947;46.804;134.252;2023-08-24T02:56:27;100498.13;;;29.21;56.49
46846;BME280;33947;46.804;134.252;2023-08-24T03:00:31;100439.25;;;29.51;52.88
46846;BME280;33947;46.804;134.252;2023-08-24T03:13:21;100474.44;;;28.68;53.10
46846;BME280;33947;46.804;134.252;2023-08-24T03:17:52;100447.75;;;28.88;50.08
46846;BME280;33947;46.804;134.252;2023-08-24T03:21:58;100528.53;;;28.38;51.23
46846;BME280;33947;46.804;134.252;2023-08-24T03:26:12;100431.38;;;28.62;53.99
46846;BME280;33947;46.804;134.252;2023-08-24T03:30:11;100483.91;;;29.09;50.72
46846;BME280;33947;46.804;134.252;2023-08-24T03:34:34;100403.28;;;28.78;49.86
46846;BME280;33947;46.804;134.252;2023-08-24T03:38:42;100506.13;;;29.49;51.57
46846;BME280;33947;46.804;134.252;2023-08-24T03:46:00;100441.13;;;28.99;46.60
46846;BME280;33947;46.804;134.252;2023-08-24T03:54:57;100472.38;;;29.31;50.95
46846;BME280;33947;46.804;134.252;2023-08-24T03:59:39;100501.78;;;29.29;46.83
46846;BME280;33947;46.804;134.252;2023-08-24T04:03:28;100464.84;;;28.91;49.96
46846;BME280;33947;46.804;134.252;2023-08-24T04:12:24;100379.72;;;28.42;48.38
46846;BME280;33947;46.804;134.252;2023-08-24T04:21:37;100420.06;;;28.57;44.67
46846;BME280;33947;46.804;134.252;2023-08-24T04:25:55;100372.06;;;28.01;48.77
46846;BME280;33947;46.804;134.252;2023-08-24T04:30:25;100411.38;;;28.09;46.24
46846;BME280;33947;46.804;134.252;2023-08-24T04:40:55;100443.81;;;28.30;46.31
46846;BME280;33947;46.804;134.252;2023-08-24T04:44:28;100430.00;;;28.31;48.29
46846;BME280;33947;46.804;134.252;2023-08-24T04:49:25;100405.69;;;28.02;47.49
46846;BME280;33947;46.804;134.252;2023-08-24T04:53:08;100420.34;;;28.19;49.05
46846;BME280;33947;46.804;134.252;2023-08-24T05:02:22;100366.66;;;28.10;47.67
46846;BME280;33947;46.804;134.252;2023-08-24T05:15:14;100394.91;;;28.19;48.99
46846;BME280;33947;46.804;134.252;2023-08-24T05:19:25;100367.06;;;28.15;47.73
46846;BME280;33947;46.804;134.252;2023-08-24T05:23:35;100315.16;;;27.88;48.25
46846;BME280;33947;46.804;134.252;2023-08-24T05:37:03;100347.19;;;28.05;50.36
46846;BME280;33947;46.804;134.252;2023-08-24T05:41:25;100442.16;;;28.64;49.89
46846;BME280;33947;46.804;134.252;2023-08-24T05:45:29;100360.59;;;28.16;49.43
46846;BME280;33947;46.804;134.252;2023-08-24T05:53:05;100397.25;;;28.13;50.05
46846;BME280;33947;46.804;134.252;2023-08-24T05:56:51;100335.56;;;27.76;49.49
46846;BME280;33947;46.804;134.252;2023-08-24T06:01:27;100440.09;;;28.39;49.51
46846;BME280;33947;46.804;134.252;2023-08-24T06:05:40;100357.91;;;27.80;49.38
46846;BME280;33947;46.804;134.252;2023-08-24T06:09:41;100329.34;;;27.66;50.39
46846;BME280;33947;46.804;134.252;2023-08-24T06:13:11;100368.59;;;27.91;49.48
46846;BME280;33947;46.804;134.252;2023-08-24T06:17:08;100396.72;;;27.92;48.67
46846;BME280;33947;46.804;134.252;2023-08-24T06:25:31;100425.81;;;28.01;49.61
46846;BME280;33947;46.804;134.252;2023-08-24T06:29:12;100352.97;;;27.57;49.82
46846;BME280;33947;46.804;134.252;2023-08-24T06:38:09;100347.13;;;27.52;50.41
46846;BME280;33947;46.804;134.252;2023-08-24T06:42:39;100385.63;;;27.67;46.88
46846;BME280;33947;46.804;134.252;2023-08-24T06:46:55;100406.19;;;27.79;49.98
46846;BME280;33947;46.804;134.252;2023-08-24T06:50:30;100377.53;;;27.57;50.34
46846;BME280;33947;46.804;134.252;2023-08-24T06:54:58;100410.31;;;27.83;53.05
46846;BME280;33947;46.804;134.252;2023-08-24T06:59:02;100387.19;;;27.69;51.44
46846;BME280;33947;46.804;134.252;2023-08-24T07:02:54;100358.09;;;27.42;51.10
46846;BME280;33947;46.804;134.252;2023-08-24T07:07:33;100381.00;;;27.49;45.94
46846;BME280;33947;46.804;134.252;2023-08-24T07:15:21;100380.69;;;27.34;49.38
46846;BME280;33947;46.804;134.252;2023-08-24T07:19:42;100439.41;;;27.74;49.70
46846;BME280;33947;46.804;134.252;2023-08-24T07:23:49;100400.09;;;27.49;48.17
46846;BME280;33947;46.804;134.252;2023-08-24T07:27:33;100407.44;;;27.49;50.33
46846;BME280;33947;46.804;134.252;2023-08-24T07:31:32;100393.78;;;27.30;49.99
46846;BME280;33947;46.804;134.252;2023-08-24T07:35:52;100369.53;;;27.27;49.80
46846;BME280;33947;46.804;134.252;2023-08-24T07:40:07;100306.16;;;26.79;50.38
46846;BME280;33947;46.804;134.252;2023-08-24T07:43:57;100350.81;;;26.96;53.27
46846;BME280;33947;46.804;134.252;2023-08-24T07:48:09;100316.09;;;26.70;53.64
46846;BME280;33947;46.804;134.252;2023-08-24T07:51:55;100385.03;;;27.09;54.42
46846;BME280;33947;46.804;134.252;2023-08-24T07:55:48;100385.06;;;26.99;55.38
46846;BME280;33947;46.804;134.252;2023-08-24T08:00:19;100453.13;;;27.19;55.78
46846;BME280;33947;46.804;134.252;2023-08-24T08:04:16;100464.03;;;27.19;57.05
46846;BME280;33947;46.804;134.252;2023-08-24T08:07:54;100430.56;;;26.98;56.50
46846;BME280;33947;46.804;134.252;2023-08-24T08:11:39;100382.72;;;26.48;57.53
46846;BME280;33947;46.804;134.252;2023-08-24T08:15:27;100406.25;;;26.39;59.17
46846;BME280;33947;46.804;134.252;2023-08-24T08:19:20;100405.56;;;26.27;60.10
46846;BME280;33947;46.804;134.252;2023-08-24T08:23:16;100457.69;;;26.52;61.51
46846;BME280;33947;46.804;134.252;2023-08-24T08:27:12;100378.56;;;25.86;60.80
46846;BME280;33947;46.804;134.252;2023-08-24T08:30:31;100465.56;;;26.46;60.21
46846;BME280;33947;46.804;134.252;2023-08-24T08:33:39;100432.78;;;26.27;59.82
46846;BME280;33947;46.804;134.252;2023-08-24T08:36:43;100455.03;;;26.23;61.27
46846;BME280;33947;46.804;134.252;2023-08-24T08:39:50;100453.88;;;26.25;61.86
46846;BME280;33947;46.804;134.252;2023-08-24T08:42:57;100464.34;;;26.20;62.34
46846;BME280;33947;46.804;134.252;2023-08-24T08:46:02;100461.03;;;26.07;63.28
46846;BME280;33947;46.804;134.252;2023-08-24T08:49:11;100469.34;;;25.85;64.02
46846;BME280;33947;46.804;134.252;2023-08-24T08:52:22;100481.66;;;25.80;64.84
46846;BME280;33947;46.804;134.252;2023-08-24T08:55:31;100482.81;;;25.77;65.41
46846;BME280;33947;46.804;134.252;2023-08-24T08:58:37;100476.38;;;25.68;65.85
46846;BME280;33947;46.804;134.252;2023-08-24T09:01:45;100475.22;;;25.61;66.74
46846;BME280;33947;46.804;134.252;2023-08-24T09:04:51;100492.78;;;25.57;67.52
46846;BME280;33947;46.804;134.252;2023-08-24T09:07:57;100490.09;;;25.47;68.12
46846;BME280;33947;46.804;134.252;2023-08-24T09:11:03;100496.63;;;25.44;68.71
46846;BME280;33947;46.804;134.252;2023-08-24T09:14:07;100483.69;;;25.27;68.75
46846;BME280;33947;46.804;134.252;2023-08-24T09:17:19;100501.84;;;25.26;69.88
46846;BME280;33947;46.804;134.252;2023-08-24T09:20:27;100504.28;;;25.20;70.09
46846;BME280;33947;46.804;134.252;2023-08-24T09:23:33;100511.25;;;25.12;70.18
46846;BME280;33947;46.804;134.252;2023-08-24T09:26:38;100510.91;;;24.96;70.96
46846;BME280;33947;46.804;134.252;2023-08-24T09:29:52;100504.97;;;24.81;71.11
46846;BME280;33947;46.804;134.252;2023-08-24T09:33:09;100506.53;;;24.62;72.12
46846;BME280;33947;46.804;134.252;2023-08-24T09:36:17;100492.50;;;24.36;72.96
46846;BME280;33947;46.804;134.252;2023-08-24T09:39:36;100492.84;;;24.21;73.41
46846;BME280;33947;46.804;134.252;2023-08-24T09:43:04;100497.94;;;24.14;73.44
46846;BME280;33947;46.804;134.252;2023-08-24T09:46:58;100468.09;;;23.82;75.57
46846;BME280;33947;46.804;134.252;2023-08-24T09:51:20;100457.38;;;23.48;74.89
46846;BME280;33947;46.804;134.252;2023-08-24T09:55:36;100503.66;;;23.56;75.11
46846;BME280;33947;46.804;134.252;2023-08-24T10:04:33;100413.59;;;22.86;76.44
46846;BME280;33947;46.804;134.252;2023-08-24T10:08:17;100463.34;;;22.96;76.63
46846;BME280;33947;46.804;134.252;2023-08-24T10:12:10;100472.66;;;22.92;76.76
46846;BME280;33947;46.804;134.252;2023-08-24T10:16:23;100480.31;;;22.87;76.57
46846;BME280;33947;46.804;134.252;2023-08-24T10:19:43;100468.50;;;22.65;77.10
46846;BME280;33947;46.804;134.252;2023-08-24T10:23:29;100479.09;;;22.57;77.92
46846;BME280;33947;46.804;134.252;2023-08-24T10:26:48;100488.78;;;22.59;77.24
46846;BME280;33947;46.804;134.252;2023-08-24T10:30:15;100489.91;;;22.57;77.37
46846;BME280;33947;46.804;134.252;2023-08-24T10:33:38;100456.69;;;22.19;77.83
46846;BME280;33947;46.804;134.252;2023-08-24T10:37:26;100525.47;;;22.27;80.41
46846;BME280;33947;46.804;134.252;2023-08-24T10:40:49;100502.69;;;22.19;80.09
46846;BME280;33947;46.804;134.252;2023-08-24T10:44:24;100502.53;;;22.09;80.54
46846;BME280;33947;46.804;134.252;2023-08-24T10:47:46;100474.16;;;21.79;80.11
46846;BME280;33947;46.804;134.252;2023-08-24T10:51:18;100575.88;;;22.17;81.38
46846;BME280;33947;46.804;134.252;2023-08-24T10:55:03;100485.31;;;21.37;82.62
46846;BME280;33947;46.804;134.252;2023-08-24T10:58:15;100536.94;;;21.82;81.46
46846;BME280;33947;46.804;134.252;2023-08-24T11:02:03;100585.88;;;22.04;82.01
46846;BME280;33947;46.804;134.252;2023-08-24T11:05:24;100594.66;;;22.19;80.74
46846;BME280;33947;46.804;134.252;2023-08-24T11:09:08;100591.94;;;21.70;85.79
46846;BME280;33947;46.804;134.252;2023-08-24T11:12:19;100589.88;;;21.61;84.36
46846;BME280;33947;46.804;134.252;2023-08-24T11:15:34;100588.72;;;21.65;83.88
46846;BME280;33947;46.804;134.252;2023-08-24T11:18:42;100599.59;;;21.63;82.99
46846;BME280;33947;46.804;134.252;2023-08-24T11:21:46;100602.22;;;21.52;83.98
46846;BME280;33947;46.804;134.252;2023-08-24T11:24:51;100595.66;;;21.30;85.31
46846;BME280;33947;46.804;134.252;2023-08-24T11:27:58;100601.16;;;21.42;84.29
46846;BME280;33947;46.804;134.252;2023-08-24T11:31:04;100609.44;;;21.51;83.56
46846;BME280;33947;46.804;134.252;2023-08-24T11:34:08;100590.25;;;21.17;85.26
46846;BME280;33947;46.804;134.252;2023-08-24T11:37:19;100606.28;;;21.07;86.52
46846;BME280;33947;46.804;134.252;2023-08-24T11:40:27;100605.06;;;21.11;86.01
46846;BME280;33947;46.804;134.252;2023-08-24T11:43:33;100609.16;;;21.17;85.19
46846;BME280;33947;46.804;134.252;2023-08-24T11:46:40;100609.38;;;21.27;83.88
46846;BME280;33947;46.804;134.252;2023-08-24T11:49:44;100613.50;;;21.20;83.67
46846;BME280;33947;46.804;134.252;2023-08-24T11:52:50;100600.31;;;21.15;83.03
46846;BME280;33947;46.804;134.252;2023-08-24T11:56:04;100606.47;;;20.91;84.13
46846;BME280;33947;46.804;134.252;2023-08-24T11:59:19;100609.78;;;20.82;84.84
46846;BME280;33947;46.804;134.252;2023-08-24T12:02:25;100616.91;;;20.70;85.41
46846;BME280;33947;46.804;134.252;2023-08-24T12:05:32;100612.97;;;20.61;85.60
46846;BME280;33947;46.804;134.252;2023-08-24T12:08:52;100559.13;;;20.19;85.48
46846;BME280;33947;46.804;134.252;2023-08-24T12:12:16;100613.56;;;20.39;86.54
46846;BME280;33947;46.804;134.252;2023-08-24T12:15:23;100622.13;;;20.18;87.42
46846;BME280;33947;46.804;134.252;2023-08-24T12:18:37;100612.97;;;20.21;86.67
46846;BME280;33947;46.804;134.252;2023-08-24T12:21:50;100618.25;;;20.22;86.42
46846;BME280;33947;46.804;134.252;2023-08-24T12:24:54;100619.63;;;20.15;86.85
46846;BME280;33947;46.804;134.252;2023-08-24T12:31:18;100607.94;;;19.87;88.49
46846;BME280;33947;46.804;134.252;2023-08-24T12:34:24;100612.88;;;19.80;88.29
46846;BME280;33947;46.804;134.252;2023-08-24T12:37:28;100608.25;;;19.68;89.07
46846;BME280;33947;46.804;134.252;2023-08-24T12:40:33;100615.28;;;19.71;89.13
46846;BME280;33947;46.804;134.252;2023-08-24T12:43:38;100616.41;;;19.81;87.40
46846;BME280;33947;46.804;134.252;2023-08-24T12:46:49;100595.63;;;19.83;86.44
46846;BME280;33947;46.804;134.252;2023-08-24T12:49:53;100600.03;;;19.84;85.69
46846;BME280;33947;46.804;134.252;2023-08-24T12:52:58;100605.00;;;19.63;87.09
46846;BME280;33947;46.804;134.252;2023-08-24T12:56:03;100606.81;;;19.77;86.14
46846;BME280;33947;46.804;134.252;2023-08-24T12:59:08;100600.09;;;19.70;86.69
46846;BME280;33947;46.804;134.252;2023-08-24T13:02:13;100581.63;;;19.63;86.08
46846;BME280;33947;46.804;134.252;2023-08-24T13:05:30;100598.72;;;19.77;85.42
46846;BME280;33947;46.804;134.252;2023-08-24T13:08:37;100602.28;;;19.63;85.77
46846;BME280;33947;46.804;134.252;2023-08-24T13:11:41;100596.06;;;19.48;86.62
46846;BME280;33947;46.804;134.252;2023-08-24T13:14:46;100589.66;;;19.36;87.26
46846;BME280;33947;46.804;134.252;2023-08-24T13:17:53;100593.56;;;19.30;87.41
46846;BME280;33947;46.804;134.252;2023-08-24T13:21:00;100600.50;;;19.20;87.61
46846;BME280;33947;46.804;134.252;2023-08-24T13:24:06;100606.22;;;18.85;90.04
46846;BME280;33947;46.804;134.252;2023-08-24T13:27:11;100599.63;;;18.74;91.10
46846;BME280;33947;46.804;134.252;2023-08-24T13:30:15;100606.69;;;18.91;90.16
46846;BME280;33947;46.804;134.252;2023-08-24T13:33:19;100594.09;;;18.92;89.45
46846;BME280;33947;46.804;134.252;2023-08-24T13:36:23;100613.19;;;19.03;88.56
46846;BME280;33947;46.804;134.252;2023-08-24T13:39:28;100600.78;;;19.01;88.67
46846;BME280;33947;46.804;134.252;2023-08-24T13:42:33;100591.31;;;18.93;88.50
46846;BME280;33947;46.804;134.252;2023-08-24T13:45:39;100602.06;;;18.93;88.37
46846;BME280;33947;46.804;134.252;2023-08-24T13:48:44;100595.41;;;18.70;89.68
46846;BME280;33947;46.804;134.252;2023-08-24T13:51:48;100570.75;;;18.47;90.38
46846;BME280;33947;46.804;134.252;2023-08-24T13:54:54;100604.94;;;18.76;89.89
46846;BME280;33947;46.804;134.252;2023-08-24T13:58:13;100601.09;;;18.80;89.31
46846;BME280;33947;46.804;134.252;2023-08-24T14:01:17;100592.81;;;18.69;89.29
46846;BME280;33947;46.804;134.252;2023-08-24T14:04:21;100592.41;;;18.60;90.08
46846;BME280;33947;46.804;134.252;2023-08-24T14:07:25;100594.22;;;18.60;89.97
46846;BME280;33947;46.804;134.252;2023-08-24T14:10:30;100588.66;;;18.63;89.62
46846;BME280;33947;46.804;134.252;2023-08-24T14:13:37;100544.69;;;18.33;88.81
46846;BME280;33947;46.804;134.252;2023-08-24T14:16:56;100563.50;;;18.33;89.01
46846;BME280;33947;46.804;134.252;2023-08-24T14:20:05;100577.31;;;18.27;90.06
46846;BME280;33947;46.804;134.252;2023-08-24T14:23:10;100579.25;;;18.25;90.30
46846;BME280;33947;46.804;134.252;2023-08-24T14:26:15;100582.59;;;18.29;89.81
46846;BME280;33947;46.804;134.252;2023-08-24T14:29:20;100587.13;;;18.28;90.07
46846;BME280;33947;46.804;134.252;2023-08-24T14:32:25;100580.47;;;18.19;89.50
46846;BME280;33947;46.804;134.252;2023-08-24T14:35:39;100597.19;;;18.25;89.95
46846;BME280;33947;46.804;134.252;2023-08-24T14:38:43;100585.50;;;18.10;90.05
46846;BME280;33947;46.804;134.252;2023-08-24T14:41:48;100567.56;;;18.10;89.62
46846;BME280;33947;46.804;134.252;2023-08-24T14:44:54;100576.75;;;18.06;89.67
46846;BME280;33947;46.804;134.252;2023-08-24T14:48:02;100569.34;;;17.93;89.80
46846;BME280;33947;46.804;134.252;2023-08-24T14:51:06;100592.28;;;17.85;91.31
46846;BME280;33947;46.804;134.252;2023-08-24T14:54:13;100578.47;;;17.91;90.84
46846;BME280;33947;46.804;134.252;2023-08-24T14:57:19;100600.31;;;18.17;89.62
46846;BME280;33947;46.804;134.252;2023-08-24T15:00:23;100568.69;;;18.06;88.60
46846;BME280;33947;46.804;134.252;2023-08-24T15:03:33;100545.09;;;17.79;89.42
46846;BME280;33947;46.804;134.252;2023-08-24T15:06:38;100557.94;;;18.06;88.32
46846;BME280;33947;46.804;134.252;2023-08-24T15:09:47;100569.88;;;18.00;88.55
46846;BME280;33947;46.804;134.252;2023-08-24T15:12:54;100556.56;;;17.83;89.49
46846;BME280;33947;46.804;134.252;2023-08-24T15:16:23;100578.31;;;17.62;91.49
46846;BME280;33947;46.804;134.252;2023-08-24T15:19:28;100570.75;;;17.53;92.19
46846;BME280;33947;46.804;134.252;2023-08-24T15:22:33;100573.81;;;17.62;91.50
46846;BME280;33947;46.804;134.252;2023-08-24T15:25:37;100561.31;;;17.61;91.33
46846;BME280;33947;46.804;134.252;2023-08-24T15:29:12;100561.41;;;17.60;91.25
46846;BME280;33947;46.804;134.252;2023-08-24T15:32:23;100571.78;;;17.66;90.54
46846;BME280;33947;46.804;134.252;2023-08-24T15:35:28;100566.53;;;17.64;90.25
46846;BME280;33947;46.804;134.252;2023-08-24T15:38:35;100564.00;;;17.45;91.05
46846;BME280;33947;46.804;134.252;2023-08-24T15:41:40;100559.69;;;17.09;94.32
46846;BME280;33947;46.804;134.252;2023-08-24T15:44:48;100556.84;;;17.12;94.09
46846;BME280;33947;46.804;134.252;2023-08-24T15:47:52;100553.06;;;17.32;92.46
46846;BME280;33947;46.804;134.252;2023-08-24T15:50:58;100553.25;;;17.29;92.24
46846;BME280;33947;46.804;134.252;2023-08-24T15:54:02;100547.31;;;17.06;93.35
46846;BME280;33947;46.804;134.252;2023-08-24T15:57:10;100551.69;;;17.25;92.52
46846;BME280;33947;46.804;134.252;2023-08-24T16:00:18;100541.78;;;17.26;91.46
46846;BME280;33947;46.804;134.252;2023-08-24T16:03:23;100546.97;;;17.13;92.34
46846;BME280;33947;46.804;134.252;2023-08-24T16:06:29;100516.47;;;16.98;92.89
46846;BME280;33947;46.804;134.252;2023-08-24T16:09:34;100526.06;;;17.02;93.78
46846;BME280;33947;46.804;134.252;2023-08-24T16:12:39;100524.81;;;17.09;93.08
46846;BME280;33947;46.804;134.252;2023-08-24T16:15:46;100526.09;;;17.18;92.95
46846;BME280;33947;46.804;134.252;2023-08-24T16:18:50;100531.94;;;17.26;92.46
46846;BME280;33947;46.804;134.252;2023-08-24T16:21:57;100481.81;;;16.93;92.47
46846;BME280;33947;46.804;134.252;2023-08-24T16:25:04;100511.91;;;17.16;91.99
46846;BME280;33947;46.804;134.252;2023-08-24T16:28:13;100518.94;;;17.18;92.63
46846;BME280;33947;46.804;134.252;2023-08-24T16:31:19;100505.38;;;17.04;93.45
46846;BME280;33947;46.804;134.252;2023-08-24T16:34:26;100524.84;;;17.25;92.84
46846;BME280;33947;46.804;134.252;2023-08-24T16:37:30;100515.66;;;17.29;92.05
46846;BME280;33947;46.804;134.252;2023-08-24T16:40:38;100511.56;;;17.22;91.98
46846;BME280;33947;46.804;134.252;2023-08-24T16:43:47;100517.28;;;17.32;90.60
46846;BME280;33947;46.804;134.252;2023-08-24T16:46:57;100506.28;;;17.20;90.35
46846;BME280;33947;46.804;134.252;2023-08-24T16:50:02;100502.47;;;17.09;91.08
46846;BME280;33947;46.804;134.252;2023-08-24T16:53:06;100494.63;;;16.70;93.61
46846;BME280;33947;46.804;134.252;2023-08-24T16:56:10;100500.66;;;16.91;92.93
46846;BME280;33947;46.804;134.252;2023-08-24T16:59:15;100504.91;;;16.96;91.93
46846;BME280;33947;46.804;134.252;2023-08-24T17:02:23;100497.38;;;16.86;92.14
46846;BME280;33947;46.804;134.252;2023-08-24T17:05:28;100461.13;;;16.61;92.69
46846;BME280;33947;46.804;134.252;2023-08-24T17:08:35;100483.91;;;16.70;91.50
46846;BME280;33947;46.804;134.252;2023-08-24T17:11:39;100492.16;;;16.83;91.87
46846;BME280;33947;46.804;134.252;2023-08-24T17:14:43;100488.81;;;16.96;90.79
46846;BME280;33947;46.804;134.252;2023-08-24T17:17:52;100481.78;;;16.77;91.00
46846;BME280;33947;46.804;134.252;2023-08-24T17:20:57;100490.63;;;16.61;92.63
46846;BME280;33947;46.804;134.252;2023-08-24T17:24:02;100492.63;;;16.58;93.03
46846;BME280;33947;46.804;134.252;2023-08-24T17:27:16;100431.28;;;16.34;92.47
46846;BME280;33947;46.804;134.252;2023-08-24T17:30:23;100487.00;;;16.62;92.03
46846;BME280;33947;46.804;134.252;2023-08-24T17:33:31;100482.91;;;16.55;92.10
46846;BME280;33947;46.804;134.252;2023-08-24T17:36:37;100462.06;;;16.09;94.02
46846;BME280;33947;46.804;134.252;2023-08-24T17:39:50;100451.44;;;16.08;94.66
46846;BME280;33947;46.804;134.252;2023-08-24T17:42:56;100481.75;;;16.43;93.77
46846;BME280;33947;46.804;134.252;2023-08-24T17:46:10;100477.16;;;16.45;92.29
46846;BME280;33947;46.804;134.252;2023-08-24T17:49:16;100477.50;;;16.39;92.76
46846;BME280;33947;46.804;134.252;2023-08-24T17:52:21;100478.69;;;16.33;93.34
46846;BME280;33947;46.804;134.252;2023-08-24T17:55:33;100474.75;;;16.41;92.51
46846;BME280;33947;46.804;134.252;2023-08-24T17:58:39;100470.41;;;16.38;92.75
46846;BME280;33947;46.804;134.252;2023-08-24T18:02:06;100462.69;;;16.32;92.05
46846;BME280;33947;46.804;134.252;2023-08-24T18:05:10;100474.19;;;16.34;92.71
46846;BME280;33947;46.804;134.252;2023-08-24T18:08:16;100469.53;;;16.38;92.94
46846;BME280;33947;46.804;134.252;2023-08-24T18:11:55;100378.84;;;15.77;92.61
46846;BME280;33947;46.804;134.252;2023-08-24T18:15:05;100456.53;;;16.30;92.08
46846;BME280;33947;46.804;134.252;2023-08-24T18:18:21;100467.56;;;16.41;91.61
46846;BME280;33947;46.804;134.252;2023-08-24T18:21:57;100362.13;;;15.54;92.15
46846;BME280;33947;46.804;134.252;2023-08-24T18:26:16;100426.44;;;15.53;94.85
46846;BME280;33947;46.804;134.252;2023-08-24T18:29:53;100473.72;;;15.90;95.49
46846;BME280;33947;46.804;134.252;2023-08-24T18:33:01;100460.59;;;15.84;94.03
46846;BME280;33947;46.804;134.252;2023-08-24T18:36:07;100486.03;;;15.75;95.04
46846;BME280;33947;46.804;134.252;2023-08-24T18:39:13;100480.69;;;15.75;94.97
46846;BME280;33947;46.804;134.252;2023-08-24T18:42:17;100473.53;;;15.76;94.92
46846;BME280;33947;46.804;134.252;2023-08-24T18:45:25;100461.72;;;15.80;94.77
46846;BME280;33947;46.804;134.252;2023-08-24T18:48:31;100456.16;;;15.66;95.07
46846;BME280;33947;46.804;134.252;2023-08-24T18:51:36;100464.38;;;15.80;95.31
46846;BME280;33947;46.804;134.252;2023-08-24T18:54:41;100472.06;;;15.88;94.58
46846;BME280;33947;46.804;134.252;2023-08-24T18:57:45;100468.56;;;15.86;95.04